sensor_id;sensor_type;location;lat;lon;timestamp;P1;durP1;ratioP1;P2;durP2;ratioP2
287;SDS011;128;48.770;9.198;2023-07-02T00:00:05;6.70;;;4.30;;
287;SDS011;128;48.770;9.198;2023-07-02T00:02:31;9.33;;;4.90;;
287;SDS011;128;48.770;9.198;2023-07-02T00:04:57;7.73;;;4.90;;
287;SDS011;128;48.770;9.198;2023-07-02T00:07:23;7.83;;;4.40;;
287;SDS011;128;48.770;9.198;2023-07-02T00:09:50;7.30;;;4.47;;
287;SDS011;128;48.770;9.198;2023-07-02T00:12:16;5.93;;;4.20;;
287;SDS011;128;48.770;9.198;2023-07-02T00:14:42;10.60;;;4.80;;
287;SDS011;128;48.770;9.198;2023-07-02T00:17:08;6.60;;;3.90;;
287;SDS011;128;48.770;9.198;2023-07-02T00:19:37;12.53;;;4.33;;
287;SDS011;128;48.770;9.198;2023-07-02T00:22:06;6.20;;;3.83;;
287;SDS011;128;48.770;9.198;2023-07-02T00:24:32;7.47;;;4.20;;
287;SDS011;128;48.770;9.198;2023-07-02T00:26:58;10.17;;;4.57;;
287;SDS011;128;48.770;9.198;2023-07-02T00:29:24;10.93;;;4.83;;
287;SDS011;128;48.770;9.198;2023-07-02T00:31:50;7.13;;;4.60;;
287;SDS011;128;48.770;9.198;2023-07-02T00:34:17;8.70;;;4.50;;
287;SDS011;128;48.770;9.198;2023-07-02T00:36:43;8.50;;;4.27;;
287;SDS011;128;48.770;9.198;2023-07-02T00:39:09;6.33;;;3.60;;
287;SDS011;128;48.770;9.198;2023-07-02T00:41:38;5.63;;;3.67;;
287;SDS011;128;48.770;9.198;2023-07-02T00:44:06;7.10;;;4.70;;
287;SDS011;128;48.770;9.198;2023-07-02T00:46:34;6.93;;;4.10;;
287;SDS011;128;48.770;9.198;2023-07-02T00:48:59;8.77;;;4.10;;
287;SDS011;128;48.770;9.198;2023-07-02T00:51:26;10.27;;;4.43;;
287;SDS011;128;48.770;9.198;2023-07-02T00:53:53;13.33;;;4.60;;
287;SDS011;128;48.770;9.198;2023-07-02T00:56:20;10.23;;;4.30;;
287;SDS011;128;48.770;9.198;2023-07-02T00:58:47;8.93;;;4.57;;
287;SDS011;128;48.770;9.198;2023-07-02T01:01:15;7.03;;;4.37;;
287;SDS011;128;48.770;9.198;2023-07-02T01:04:00;6.50;;;3.90;;
287;SDS011;128;48.770;9.198;2023-07-02T01:06:27;6.40;;;4.13;;
287;SDS011;128;48.770;9.198;2023-07-02T01:08:54;10.40;;;3.97;;
287;SDS011;128;48.770;9.198;2023-07-02T01:11:21;6.80;;;4.00;;
287;SDS011;128;48.770;9.198;2023-07-02T01:13:47;9.67;;;3.90;;
287;SDS011;128;48.770;9.198;2023-07-02T01:16:14;10.10;;;4.00;;
287;SDS011;128;48.770;9.198;2023-07-02T01:18:40;7.90;;;3.77;;
287;SDS011;128;48.770;9.198;2023-07-02T01:21:06;7.37;;;3.60;;
287;SDS011;128;48.770;9.198;2023-07-02T01:23:32;7.47;;;4.10;;
287;SDS011;128;48.770;9.198;2023-07-02T01:25:59;7.87;;;3.30;;
287;SDS011;128;48.770;9.198;2023-07-02T01:28:34;7.43;;;3.37;;
287;SDS011;128;48.770;9.198;2023-07-02T01:31:00;7.23;;;3.80;;
287;SDS011;128;48.770;9.198;2023-07-02T01:33:26;5.90;;;3.53;;
287;SDS011;128;48.770;9.198;2023-07-02T01:35:52;6.73;;;4.00;;
287;SDS011;128;48.770;9.198;2023-07-02T01:38:18;5.80;;;3.70;;
287;SDS011;128;48.770;9.198;2023-07-02T01:40:44;6.73;;;3.57;;
287;SDS011;128;48.770;9.198;2023-07-02T01:43:10;7.50;;;3.73;;
287;SDS011;128;48.770;9.198;2023-07-02T01:45:37;6.33;;;4.50;;
287;SDS011;128;48.770;9.198;2023-07-02T01:48:03;6.77;;;3.80;;
287;SDS011;128;48.770;9.198;2023-07-02T01:50:29;5.63;;;3.57;;
287;SDS011;128;48.770;9.198;2023-07-02T01:52:55;8.03;;;4.00;;
287;SDS011;128;48.770;9.198;2023-07-02T01:55:21;5.80;;;4.10;;
287;SDS011;128;48.770;9.198;2023-07-02T01:57:47;8.13;;;3.83;;
287;SDS011;128;48.770;9.198;2023-07-02T02:00:12;7.50;;;3.77;;
287;SDS011;128;48.770;9.198;2023-07-02T02:02:38;3.67;;;3.30;;
287;SDS011;128;48.770;9.198;2023-07-02T02:05:04;6.80;;;4.10;;
287;SDS011;128;48.770;9.198;2023-07-02T02:07:30;6.00;;;4.00;;
287;SDS011;128;48.770;9.198;2023-07-02T02:09:57;3.97;;;3.80;;
287;SDS011;128;48.770;9.198;2023-07-02T02:12:23;17.50;;;3.87;;
287;SDS011;128;48.770;9.198;2023-07-02T02:14:49;5.83;;;4.03;;
287;SDS011;128;48.770;9.198;2023-07-02T02:17:15;17.77;;;4.97;;
287;SDS011;128;48.770;9.198;2023-07-02T02:19:41;7.47;;;3.90;;
287;SDS011;128;48.770;9.198;2023-07-02T02:22:07;9.90;;;4.70;;
287;SDS011;128;48.770;9.198;2023-07-02T02:24:33;9.70;;;4.10;;
287;SDS011;128;48.770;9.198;2023-07-02T02:26:59;8.43;;;4.57;;
287;SDS011;128;48.770;9.198;2023-07-02T02:29:25;8.37;;;4.37;;
287;SDS011;128;48.770;9.198;2023-07-02T02:31:51;4.90;;;3.43;;
287;SDS011;128;48.770;9.198;2023-07-02T02:34:17;5.97;;;3.83;;
287;SDS011;128;48.770;9.198;2023-07-02T02:36:43;12.30;;;4.00;;
287;SDS011;128;48.770;9.198;2023-07-02T02:39:08;16.47;;;4.53;;
287;SDS011;128;48.770;9.198;2023-07-02T02:41:34;7.40;;;4.07;;
287;SDS011;128;48.770;9.198;2023-07-02T02:44:00;6.83;;;3.50;;
287;SDS011;128;48.770;9.198;2023-07-02T02:46:26;9.00;;;2.87;;
287;SDS011;128;48.770;9.198;2023-07-02T02:48:52;5.20;;;3.63;;
287;SDS011;128;48.770;9.198;2023-07-02T02:51:18;7.73;;;4.60;;
287;SDS011;128;48.770;9.198;2023-07-02T02:53:44;7.93;;;4.00;;
287;SDS011;128;48.770;9.198;2023-07-02T02:56:11;8.00;;;3.53;;
287;SDS011;128;48.770;9.198;2023-07-02T02:58:37;4.27;;;3.30;;
287;SDS011;128;48.770;9.198;2023-07-02T03:01:03;5.53;;;3.10;;
287;SDS011;128;48.770;9.198;2023-07-02T03:03:35;7.67;;;4.30;;
287;SDS011;128;48.770;9.198;2023-07-02T03:06:03;13.33;;;4.33;;
287;SDS011;128;48.770;9.198;2023-07-02T03:08:29;6.30;;;4.13;;
287;SDS011;128;48.770;9.198;2023-07-02T03:10:56;4.20;;;3.00;;
287;SDS011;128;48.770;9.198;2023-07-02T03:13:22;8.90;;;4.53;;
287;SDS011;128;48.770;9.198;2023-07-02T03:15:48;5.43;;;3.40;;
287;SDS011;128;48.770;9.198;2023-07-02T03:18:14;11.73;;;4.40;;
287;SDS011;128;48.770;9.198;2023-07-02T03:20:40;6.20;;;3.40;;
287;SDS011;128;48.770;9.198;2023-07-02T03:23:05;6.53;;;3.53;;
287;SDS011;128;48.770;9.198;2023-07-02T03:25:31;5.90;;;3.87;;
287;SDS011;128;48.770;9.198;2023-07-02T03:27:57;10.20;;;4.07;;
287;SDS011;128;48.770;9.198;2023-07-02T03:30:23;8.70;;;3.47;;
287;SDS011;128;48.770;9.198;2023-07-02T03:32:49;7.87;;;3.50;;
287;SDS011;128;48.770;9.198;2023-07-02T03:35:15;8.00;;;4.33;;
287;SDS011;128;48.770;9.198;2023-07-02T03:37:41;8.03;;;4.33;;
287;SDS011;128;48.770;9.198;2023-07-02T03:40:08;7.20;;;4.10;;
287;SDS011;128;48.770;9.198;2023-07-02T03:42:35;8.43;;;4.57;;
287;SDS011;128;48.770;9.198;2023-07-02T03:45:01;7.60;;;4.20;;
287;SDS011;128;48.770;9.198;2023-07-02T03:47:28;8.10;;;4.60;;
287;SDS011;128;48.770;9.198;2023-07-02T03:49:54;7.37;;;5.10;;
287;SDS011;128;48.770;9.198;2023-07-02T03:52:20;7.20;;;4.80;;
287;SDS011;128;48.770;9.198;2023-07-02T03:54:46;16.43;;;5.33;;
287;SDS011;128;48.770;9.198;2023-07-02T03:57:12;7.90;;;4.87;;
287;SDS011;128;48.770;9.198;2023-07-02T03:59:37;13.10;;;5.10;;
287;SDS011;128;48.770;9.198;2023-07-02T04:02:03;9.50;;;4.50;;
287;SDS011;128;48.770;9.198;2023-07-02T04:04:29;7.80;;;5.17;;
287;SDS011;128;48.770;9.198;2023-07-02T04:06:55;14.10;;;5.20;;
287;SDS011;128;48.770;9.198;2023-07-02T04:09:21;7.80;;;4.27;;
287;SDS011;128;48.770;9.198;2023-07-02T04:11:47;9.40;;;5.00;;
287;SDS011;128;48.770;9.198;2023-07-02T04:14:13;11.87;;;5.40;;
287;SDS011;128;48.770;9.198;2023-07-02T04:16:39;10.00;;;6.00;;
287;SDS011;128;48.770;9.198;2023-07-02T04:19:05;24.83;;;7.80;;
287;SDS011;128;48.770;9.198;2023-07-02T04:21:31;11.70;;;5.13;;
287;SDS011;128;48.770;9.198;2023-07-02T04:23:57;15.63;;;5.10;;
287;SDS011;128;48.770;9.198;2023-07-02T04:26:23;12.40;;;5.30;;
287;SDS011;128;48.770;9.198;2023-07-02T04:28:51;12.07;;;5.73;;
287;SDS011;128;48.770;9.198;2023-07-02T04:31:17;10.20;;;5.57;;
287;SDS011;128;48.770;9.198;2023-07-02T04:33:44;17.20;;;5.63;;
287;SDS011;128;48.770;9.198;2023-07-02T04:36:10;10.93;;;5.17;;
287;SDS011;128;48.770;9.198;2023-07-02T04:38:37;11.50;;;5.20;;
287;SDS011;128;48.770;9.198;2023-07-02T04:41:04;12.53;;;5.07;;
287;SDS011;128;48.770;9.198;2023-07-02T04:43:33;11.63;;;5.53;;
287;SDS011;128;48.770;9.198;2023-07-02T04:45:59;10.93;;;5.53;;
287;SDS011;128;48.770;9.198;2023-07-02T04:48:25;12.13;;;5.17;;
287;SDS011;128;48.770;9.198;2023-07-02T04:50:51;9.53;;;4.60;;
287;SDS011;128;48.770;9.198;2023-07-02T04:53:17;16.83;;;5.70;;
287;SDS011;128;48.770;9.198;2023-07-02T04:55:43;14.17;;;4.87;;
287;SDS011;128;48.770;9.198;2023-07-02T04:58:09;14.00;;;4.77;;
287;SDS011;128;48.770;9.198;2023-07-02T05:00:35;11.63;;;4.63;;
287;SDS011;128;48.770;9.198;2023-07-02T05:03:01;11.30;;;5.37;;
287;SDS011;128;48.770;9.198;2023-07-02T05:05:27;12.87;;;5.57;;
287;SDS011;128;48.770;9.198;2023-07-02T05:07:54;13.10;;;5.50;;
287;SDS011;128;48.770;9.198;2023-07-02T05:10:20;12.30;;;5.30;;
287;SDS011;128;48.770;9.198;2023-07-02T05:12:46;11.80;;;4.93;;
287;SDS011;128;48.770;9.198;2023-07-02T05:15:12;10.30;;;3.80;;
287;SDS011;128;48.770;9.198;2023-07-02T05:17:38;6.90;;;3.87;;
287;SDS011;128;48.770;9.198;2023-07-02T05:20:04;8.73;;;4.40;;
287;SDS011;128;48.770;9.198;2023-07-02T05:22:30;14.23;;;4.33;;
287;SDS011;128;48.770;9.198;2023-07-02T05:24:56;11.80;;;4.97;;
287;SDS011;128;48.770;9.198;2023-07-02T05:27:22;14.27;;;4.80;;
287;SDS011;128;48.770;9.198;2023-07-02T05:29:48;8.70;;;4.63;;
287;SDS011;128;48.770;9.198;2023-07-02T05:32:14;11.40;;;5.27;;
287;SDS011;128;48.770;9.198;2023-07-02T05:34:40;15.53;;;5.07;;
287;SDS011;128;48.770;9.198;2023-07-02T05:37:06;9.27;;;4.00;;
287;SDS011;128;48.770;9.198;2023-07-02T05:39:33;12.53;;;4.23;;
287;SDS011;128;48.770;9.198;2023-07-02T05:41:59;9.60;;;3.80;;
287;SDS011;128;48.770;9.198;2023-07-02T05:44:25;17.60;;;5.30;;
287;SDS011;128;48.770;9.198;2023-07-02T05:46:51;11.70;;;4.67;;
287;SDS011;128;48.770;9.198;2023-07-02T05:49:17;10.07;;;4.83;;
287;SDS011;128;48.770;9.198;2023-07-02T05:51:43;14.90;;;5.10;;
287;SDS011;128;48.770;9.198;2023-07-02T05:54:09;9.27;;;4.70;;
287;SDS011;128;48.770;9.198;2023-07-02T05:56:35;14.93;;;5.63;;
287;SDS011;128;48.770;9.198;2023-07-02T05:59:01;14.03;;;4.97;;
287;SDS011;128;48.770;9.198;2023-07-02T06:01:26;12.37;;;5.83;;
287;SDS011;128;48.770;9.198;2023-07-02T06:03:52;15.73;;;5.37;;
287;SDS011;128;48.770;9.198;2023-07-02T06:06:18;19.47;;;6.83;;
287;SDS011;128;48.770;9.198;2023-07-02T06:08:44;14.80;;;4.80;;
287;SDS011;128;48.770;9.198;2023-07-02T06:11:10;13.60;;;5.97;;
287;SDS011;128;48.770;9.198;2023-07-02T06:13:36;16.67;;;5.67;;
287;SDS011;128;48.770;9.198;2023-07-02T06:16:02;16.70;;;6.10;;
287;SDS011;128;48.770;9.198;2023-07-02T06:18:28;9.33;;;5.30;;
287;SDS011;128;48.770;9.198;2023-07-02T06:20:54;15.27;;;5.43;;
287;SDS011;128;48.770;9.198;2023-07-02T06:23:20;10.57;;;6.03;;
287;SDS011;128;48.770;9.198;2023-07-02T06:25:46;21.03;;;7.00;;
287;SDS011;128;48.770;9.198;2023-07-02T06:28:12;16.63;;;6.33;;
287;SDS011;128;48.770;9.198;2023-07-02T06:30:38;17.27;;;8.20;;
287;SDS011;128;48.770;9.198;2023-07-02T06:33:04;23.20;;;8.27;;
287;SDS011;128;48.770;9.198;2023-07-02T06:35:30;19.77;;;9.03;;
287;SDS011;128;48.770;9.198;2023-07-02T06:37:56;17.90;;;7.90;;
287;SDS011;128;48.770;9.198;2023-07-02T06:40:22;27.63;;;8.83;;
287;SDS011;128;48.770;9.198;2023-07-02T06:42:48;21.87;;;9.20;;
287;SDS011;128;48.770;9.198;2023-07-02T06:45:14;20.13;;;8.73;;
287;SDS011;128;48.770;9.198;2023-07-02T06:47:39;18.20;;;9.77;;
287;SDS011;128;48.770;9.198;2023-07-02T06:50:05;26.60;;;9.20;;
287;SDS011;128;48.770;9.198;2023-07-02T06:52:32;22.93;;;8.70;;
287;SDS011;128;48.770;9.198;2023-07-02T06:54:58;26.43;;;9.40;;
287;SDS011;128;48.770;9.198;2023-07-02T06:57:23;20.40;;;8.90;;
287;SDS011;128;48.770;9.198;2023-07-02T06:59:49;23.13;;;9.13;;
287;SDS011;128;48.770;9.198;2023-07-02T07:02:16;21.73;;;9.47;;
287;SDS011;128;48.770;9.198;2023-07-02T07:04:42;15.07;;;8.60;;
287;SDS011;128;48.770;9.198;2023-07-02T07:07:08;28.63;;;11.20;;
287;SDS011;128;48.770;9.198;2023-07-02T07:09:33;25.70;;;9.40;;
287;SDS011;128;48.770;9.198;2023-07-02T07:11:59;21.80;;;9.50;;
287;SDS011;128;48.770;9.198;2023-07-02T07:14:25;23.70;;;9.43;;
287;SDS011;128;48.770;9.198;2023-07-02T07:16:51;24.13;;;10.37;;
287;SDS011;128;48.770;9.198;2023-07-02T07:19:17;31.33;;;9.57;;
287;SDS011;128;48.770;9.198;2023-07-02T07:21:43;21.20;;;10.43;;
287;SDS011;128;48.770;9.198;2023-07-02T07:24:09;34.10;;;13.10;;
287;SDS011;128;48.770;9.198;2023-07-02T07:26:35;29.60;;;10.30;;
287;SDS011;128;48.770;9.198;2023-07-02T07:29:01;34.83;;;10.70;;
287;SDS011;128;48.770;9.198;2023-07-02T07:31:27;29.70;;;11.53;;
287;SDS011;128;48.770;9.198;2023-07-02T07:33:53;36.33;;;13.60;;
287;SDS011;128;48.770;9.198;2023-07-02T07:36:19;42.30;;;12.00;;
287;SDS011;128;48.770;9.198;2023-07-02T07:38:45;30.60;;;13.00;;
287;SDS011;128;48.770;9.198;2023-07-02T07:41:11;24.27;;;11.43;;
287;SDS011;128;48.770;9.198;2023-07-02T07:43:37;27.83;;;12.97;;
287;SDS011;128;48.770;9.198;2023-07-02T07:46:03;34.77;;;11.97;;
287;SDS011;128;48.770;9.198;2023-07-02T07:48:29;33.47;;;14.20;;
287;SDS011;128;48.770;9.198;2023-07-02T07:50:55;33.33;;;13.20;;
287;SDS011;128;48.770;9.198;2023-07-02T07:53:20;30.27;;;12.20;;
287;SDS011;128;48.770;9.198;2023-07-02T07:55:47;28.90;;;13.13;;
287;SDS011;128;48.770;9.198;2023-07-02T07:58:13;32.77;;;12.43;;
287;SDS011;128;48.770;9.198;2023-07-02T08:00:39;31.50;;;12.93;;
287;SDS011;128;48.770;9.198;2023-07-02T08:03:05;28.90;;;12.13;;
287;SDS011;128;48.770;9.198;2023-07-02T08:05:31;30.77;;;13.00;;
287;SDS011;128;48.770;9.198;2023-07-02T08:07:57;29.90;;;12.03;;
287;SDS011;128;48.770;9.198;2023-07-02T08:10:23;28.20;;;11.47;;
287;SDS011;128;48.770;9.198;2023-07-02T08:12:50;34.83;;;11.90;;
287;SDS011;128;48.770;9.198;2023-07-02T08:15:17;34.10;;;14.23;;
287;SDS011;128;48.770;9.198;2023-07-02T08:17:43;29.63;;;13.13;;
287;SDS011;128;48.770;9.198;2023-07-02T08:20:09;30.17;;;13.73;;
287;SDS011;128;48.770;9.198;2023-07-02T08:22:36;39.73;;;13.30;;
287;SDS011;128;48.770;9.198;2023-07-02T08:25:02;29.97;;;13.07;;
287;SDS011;128;48.770;9.198;2023-07-02T08:27:29;33.70;;;12.30;;
287;SDS011;128;48.770;9.198;2023-07-02T08:29:54;30.87;;;12.37;;
287;SDS011;128;48.770;9.198;2023-07-02T08:32:20;35.03;;;13.70;;
287;SDS011;128;48.770;9.198;2023-07-02T08:34:46;36.00;;;13.90;;
287;SDS011;128;48.770;9.198;2023-07-02T08:37:12;32.37;;;12.37;;
287;SDS011;128;48.770;9.198;2023-07-02T08:39:39;34.10;;;13.47;;
287;SDS011;128;48.770;9.198;2023-07-02T08:42:05;34.57;;;13.37;;
287;SDS011;128;48.770;9.198;2023-07-02T08:44:31;30.50;;;12.77;;
287;SDS011;128;48.770;9.198;2023-07-02T08:46:57;25.93;;;12.43;;
287;SDS011;128;48.770;9.198;2023-07-02T08:49:23;30.20;;;13.90;;
287;SDS011;128;48.770;9.198;2023-07-02T08:51:50;33.50;;;12.50;;
287;SDS011;128;48.770;9.198;2023-07-02T08:54:18;29.97;;;11.17;;
287;SDS011;128;48.770;9.198;2023-07-02T08:56:45;24.77;;;11.10;;
287;SDS011;128;48.770;9.198;2023-07-02T08:59:11;28.37;;;11.87;;
287;SDS011;128;48.770;9.198;2023-07-02T09:01:50;29.50;;;12.63;;
287;SDS011;128;48.770;9.198;2023-07-02T09:04:20;30.77;;;11.13;;
287;SDS011;128;48.770;9.198;2023-07-02T09:06:46;18.60;;;10.60;;
287;SDS011;128;48.770;9.198;2023-07-02T09:09:13;28.87;;;11.30;;
287;SDS011;128;48.770;9.198;2023-07-02T09:11:49;23.07;;;9.87;;
287;SDS011;128;48.770;9.198;2023-07-02T09:14:28;24.53;;;11.20;;
287;SDS011;128;48.770;9.198;2023-07-02T09:17:05;32.73;;;11.10;;
287;SDS011;128;48.770;9.198;2023-07-02T09:19:31;23.27;;;10.00;;
287;SDS011;128;48.770;9.198;2023-07-02T09:21:58;25.03;;;10.87;;
287;SDS011;128;48.770;9.198;2023-07-02T09:24:24;27.90;;;11.60;;
287;SDS011;128;48.770;9.198;2023-07-02T09:26:54;26.63;;;11.77;;
287;SDS011;128;48.770;9.198;2023-07-02T09:29:25;23.60;;;11.40;;
287;SDS011;128;48.770;9.198;2023-07-02T09:31:55;35.70;;;11.10;;
287;SDS011;128;48.770;9.198;2023-07-02T09:34:26;28.37;;;11.13;;
287;SDS011;128;48.770;9.198;2023-07-02T09:36:52;21.60;;;11.30;;
287;SDS011;128;48.770;9.198;2023-07-02T09:39:19;24.93;;;11.20;;
287;SDS011;128;48.770;9.198;2023-07-02T09:41:47;27.17;;;10.80;;
287;SDS011;128;48.770;9.198;2023-07-02T09:44:14;20.80;;;9.57;;
287;SDS011;128;48.770;9.198;2023-07-02T09:46:53;26.00;;;11.50;;
287;SDS011;128;48.770;9.198;2023-07-02T09:49:21;23.70;;;9.80;;
287;SDS011;128;48.770;9.198;2023-07-02T09:51:48;20.77;;;11.10;;
287;SDS011;128;48.770;9.198;2023-07-02T09:54:14;30.70;;;11.87;;
287;SDS011;128;48.770;9.198;2023-07-02T09:56:41;25.13;;;10.80;;
287;SDS011;128;48.770;9.198;2023-07-02T09:59:06;25.47;;;10.90;;
287;SDS011;128;48.770;9.198;2023-07-02T10:01:32;25.83;;;11.60;;
287;SDS011;128;48.770;9.198;2023-07-02T10:04:09;23.93;;;10.50;;
287;SDS011;128;48.770;9.198;2023-07-02T10:06:47;28.20;;;11.77;;
287;SDS011;128;48.770;9.198;2023-07-02T10:09:15;26.07;;;11.27;;
287;SDS011;128;48.770;9.198;2023-07-02T10:11:40;26.47;;;10.90;;
287;SDS011;128;48.770;9.198;2023-07-02T10:14:06;26.43;;;11.50;;
287;SDS011;128;48.770;9.198;2023-07-02T10:16:32;26.90;;;11.00;;
287;SDS011;128;48.770;9.198;2023-07-02T10:19:08;22.90;;;10.87;;
287;SDS011;128;48.770;9.198;2023-07-02T10:21:34;27.10;;;11.67;;
287;SDS011;128;48.770;9.198;2023-07-02T10:24:13;27.10;;;11.87;;
287;SDS011;128;48.770;9.198;2023-07-02T10:26:51;29.90;;;14.10;;
287;SDS011;128;48.770;9.198;2023-07-02T10:29:21;26.73;;;12.80;;
287;SDS011;128;48.770;9.198;2023-07-02T10:31:48;26.20;;;12.37;;
287;SDS011;128;48.770;9.198;2023-07-02T10:34:14;21.87;;;11.83;;
287;SDS011;128;48.770;9.198;2023-07-02T10:36:40;31.87;;;12.80;;
287;SDS011;128;48.770;9.198;2023-07-02T10:39:06;32.30;;;13.53;;
287;SDS011;128;48.770;9.198;2023-07-02T10:41:33;35.37;;;14.40;;
287;SDS011;128;48.770;9.198;2023-07-02T10:44:06;24.47;;;12.17;;
287;SDS011;128;48.770;9.198;2023-07-02T10:46:32;29.00;;;11.00;;
287;SDS011;128;48.770;9.198;2023-07-02T10:48:58;35.97;;;13.63;;
287;SDS011;128;48.770;9.198;2023-07-02T10:51:25;29.83;;;13.03;;
287;SDS011;128;48.770;9.198;2023-07-02T10:53:57;25.30;;;12.30;;
287;SDS011;128;48.770;9.198;2023-07-02T10:56:24;35.60;;;13.00;;
287;SDS011;128;48.770;9.198;2023-07-02T10:58:51;40.90;;;13.27;;
287;SDS011;128;48.770;9.198;2023-07-02T11:04:22;24.27;;;13.00;;
287;SDS011;128;48.770;9.198;2023-07-02T11:06:41;28.63;;;12.53;;
287;SDS011;128;48.770;9.198;2023-07-02T11:09:16;29.80;;;12.50;;
287;SDS011;128;48.770;9.198;2023-07-02T11:11:53;29.90;;;13.53;;
287;SDS011;128;48.770;9.198;2023-07-02T11:14:35;31.53;;;12.37;;
287;SDS011;128;48.770;9.198;2023-07-02T11:17:05;31.60;;;13.00;;
287;SDS011;128;48.770;9.198;2023-07-02T11:19:32;21.47;;;11.73;;
287;SDS011;128;48.770;9.198;2023-07-02T11:21:58;25.43;;;12.53;;
287;SDS011;128;48.770;9.198;2023-07-02T11:24:28;30.70;;;13.53;;
287;SDS011;128;48.770;9.198;2023-07-02T11:26:54;27.90;;;12.10;;
287;SDS011;128;48.770;9.198;2023-07-02T11:29:20;29.10;;;12.37;;
287;SDS011;128;48.770;9.198;2023-07-02T11:31:46;25.30;;;12.00;;
287;SDS011;128;48.770;9.198;2023-07-02T11:34:16;27.60;;;11.50;;
287;SDS011;128;48.770;9.198;2023-07-02T11:36:42;29.57;;;13.00;;
287;SDS011;128;48.770;9.198;2023-07-02T11:39:08;32.03;;;12.67;;
287;SDS011;128;48.770;9.198;2023-07-02T11:41:41;23.63;;;11.17;;
287;SDS011;128;48.770;9.198;2023-07-02T11:44:07;23.30;;;11.83;;
287;SDS011;128;48.770;9.198;2023-07-02T11:46:33;20.47;;;12.17;;
287;SDS011;128;48.770;9.198;2023-07-02T11:49:00;19.93;;;10.47;;
287;SDS011;128;48.770;9.198;2023-07-02T11:51:26;27.13;;;12.67;;
287;SDS011;128;48.770;9.198;2023-07-02T11:53:52;31.67;;;12.17;;
287;SDS011;128;48.770;9.198;2023-07-02T11:56:17;21.70;;;10.83;;
287;SDS011;128;48.770;9.198;2023-07-02T11:58:43;27.67;;;12.30;;
287;SDS011;128;48.770;9.198;2023-07-02T12:01:09;26.20;;;11.23;;
287;SDS011;128;48.770;9.198;2023-07-02T12:03:35;31.63;;;11.80;;
287;SDS011;128;48.770;9.198;2023-07-02T12:06:01;21.83;;;11.47;;
287;SDS011;128;48.770;9.198;2023-07-02T12:08:27;25.57;;;11.03;;
287;SDS011;128;48.770;9.198;2023-07-02T12:10:53;24.20;;;10.90;;
287;SDS011;128;48.770;9.198;2023-07-02T12:13:19;24.53;;;11.80;;
287;SDS011;128;48.770;9.198;2023-07-02T12:15:48;23.73;;;11.23;;
287;SDS011;128;48.770;9.198;2023-07-02T12:18:16;23.77;;;12.70;;
287;SDS011;128;48.770;9.198;2023-07-02T12:20:42;26.03;;;12.07;;
287;SDS011;128;48.770;9.198;2023-07-02T12:23:08;24.30;;;12.50;;
287;SDS011;128;48.770;9.198;2023-07-02T12:25:35;24.67;;;11.00;;
287;SDS011;128;48.770;9.198;2023-07-02T12:28:01;28.63;;;12.57;;
287;SDS011;128;48.770;9.198;2023-07-02T12:30:27;22.50;;;10.97;;
287;SDS011;128;48.770;9.198;2023-07-02T12:32:53;23.23;;;12.97;;
287;SDS011;128;48.770;9.198;2023-07-02T12:35:19;22.40;;;12.20;;
287;SDS011;128;48.770;9.198;2023-07-02T12:37:46;32.93;;;14.33;;
287;SDS011;128;48.770;9.198;2023-07-02T12:40:13;23.50;;;11.03;;
287;SDS011;128;48.770;9.198;2023-07-02T12:42:40;25.50;;;12.53;;
287;SDS011;128;48.770;9.198;2023-07-02T12:45:07;21.53;;;12.10;;
287;SDS011;128;48.770;9.198;2023-07-02T12:47:33;23.37;;;11.77;;
287;SDS011;128;48.770;9.198;2023-07-02T12:49:59;22.20;;;11.40;;
287;SDS011;128;48.770;9.198;2023-07-02T12:52:25;28.30;;;13.27;;
287;SDS011;128;48.770;9.198;2023-07-02T12:54:50;24.77;;;12.30;;
287;SDS011;128;48.770;9.198;2023-07-02T12:57:17;21.60;;;11.47;;
287;SDS011;128;48.770;9.198;2023-07-02T12:59:43;24.53;;;11.67;;
287;SDS011;128;48.770;9.198;2023-07-02T13:02:09;20.83;;;10.43;;
287;SDS011;128;48.770;9.198;2023-07-02T13:04:36;24.97;;;10.80;;
287;SDS011;128;48.770;9.198;2023-07-02T13:07:02;23.20;;;10.70;;
287;SDS011;128;48.770;9.198;2023-07-02T13:09:28;19.40;;;10.87;;
287;SDS011;128;48.770;9.198;2023-07-02T13:11:54;22.23;;;12.23;;
287;SDS011;128;48.770;9.198;2023-07-02T13:14:20;18.80;;;11.43;;
287;SDS011;128;48.770;9.198;2023-07-02T13:16:46;25.10;;;11.70;;
287;SDS011;128;48.770;9.198;2023-07-02T13:19:12;20.00;;;10.50;;
287;SDS011;128;48.770;9.198;2023-07-02T13:21:39;20.27;;;10.83;;
287;SDS011;128;48.770;9.198;2023-07-02T13:24:05;23.97;;;11.80;;
287;SDS011;128;48.770;9.198;2023-07-02T13:26:31;20.00;;;11.73;;
287;SDS011;128;48.770;9.198;2023-07-02T13:28:57;22.63;;;11.70;;
287;SDS011;128;48.770;9.198;2023-07-02T13:31:23;20.70;;;11.00;;
287;SDS011;128;48.770;9.198;2023-07-02T13:33:49;18.57;;;11.50;;
287;SDS011;128;48.770;9.198;2023-07-02T13:36:16;22.57;;;10.50;;
287;SDS011;128;48.770;9.198;2023-07-02T13:38:42;19.33;;;11.23;;
287;SDS011;128;48.770;9.198;2023-07-02T13:41:08;21.13;;;11.80;;
287;SDS011;128;48.770;9.198;2023-07-02T13:43:34;25.17;;;12.03;;
287;SDS011;128;48.770;9.198;2023-07-02T13:46:00;17.87;;;9.73;;
287;SDS011;128;48.770;9.198;2023-07-02T13:48:26;26.73;;;12.63;;
287;SDS011;128;48.770;9.198;2023-07-02T13:50:52;18.60;;;10.57;;
287;SDS011;128;48.770;9.198;2023-07-02T13:53:18;16.13;;;10.20;;
287;SDS011;128;48.770;9.198;2023-07-02T13:55:45;19.10;;;10.93;;
287;SDS011;128;48.770;9.198;2023-07-02T13:58:11;21.53;;;10.83;;
287;SDS011;128;48.770;9.198;2023-07-02T14:00:36;23.63;;;11.67;;
287;SDS011;128;48.770;9.198;2023-07-02T14:03:04;23.10;;;11.37;;
287;SDS011;128;48.770;9.198;2023-07-02T14:05:30;22.07;;;11.27;;
287;SDS011;128;48.770;9.198;2023-07-02T14:07:56;20.17;;;11.80;;
287;SDS011;128;48.770;9.198;2023-07-02T14:10:22;22.40;;;11.07;;
287;SDS011;128;48.770;9.198;2023-07-02T14:12:48;20.13;;;10.53;;
287;SDS011;128;48.770;9.198;2023-07-02T14:15:14;21.97;;;11.77;;
287;SDS011;128;48.770;9.198;2023-07-02T14:17:40;20.70;;;12.07;;
287;SDS011;128;48.770;9.198;2023-07-02T14:20:06;23.50;;;12.07;;
287;SDS011;128;48.770;9.198;2023-07-02T14:22:33;17.80;;;10.40;;
287;SDS011;128;48.770;9.198;2023-07-02T14:24:59;25.40;;;11.83;;
287;SDS011;128;48.770;9.198;2023-07-02T14:27:24;23.33;;;11.07;;
287;SDS011;128;48.770;9.198;2023-07-02T14:29:50;19.67;;;10.67;;
287;SDS011;128;48.770;9.198;2023-07-02T14:32:16;18.90;;;10.87;;
287;SDS011;128;48.770;9.198;2023-07-02T14:34:43;23.93;;;11.00;;
287;SDS011;128;48.770;9.198;2023-07-02T14:37:09;21.17;;;12.37;;
287;SDS011;128;48.770;9.198;2023-07-02T14:39:35;22.70;;;10.47;;
287;SDS011;128;48.770;9.198;2023-07-02T14:42:01;25.27;;;11.23;;
287;SDS011;128;48.770;9.198;2023-07-02T14:44:27;24.00;;;11.40;;
287;SDS011;128;48.770;9.198;2023-07-02T14:46:53;22.33;;;11.53;;
287;SDS011;128;48.770;9.198;2023-07-02T14:49:20;19.07;;;11.50;;
287;SDS011;128;48.770;9.198;2023-07-02T14:51:46;17.70;;;10.63;;
287;SDS011;128;48.770;9.198;2023-07-02T14:54:12;23.77;;;12.20;;
287;SDS011;128;48.770;9.198;2023-07-02T14:56:38;18.80;;;10.23;;
287;SDS011;128;48.770;9.198;2023-07-02T14:59:04;25.27;;;13.07;;
287;SDS011;128;48.770;9.198;2023-07-02T15:01:32;21.30;;;10.30;;
287;SDS011;128;48.770;9.198;2023-07-02T15:03:57;18.93;;;10.90;;
287;SDS011;128;48.770;9.198;2023-07-02T15:06:23;15.77;;;9.10;;
287;SDS011;128;48.770;9.198;2023-07-02T15:08:49;21.83;;;12.20;;
287;SDS011;128;48.770;9.198;2023-07-02T15:11:15;22.60;;;11.30;;
287;SDS011;128;48.770;9.198;2023-07-02T15:13:41;23.40;;;12.60;;
287;SDS011;128;48.770;9.198;2023-07-02T15:16:08;22.37;;;12.13;;
287;SDS011;128;48.770;9.198;2023-07-02T15:18:34;23.40;;;12.40;;
287;SDS011;128;48.770;9.198;2023-07-02T15:21:00;22.37;;;12.83;;
287;SDS011;128;48.770;9.198;2023-07-02T15:23:27;21.57;;;11.93;;
287;SDS011;128;48.770;9.198;2023-07-02T15:25:54;23.17;;;11.43;;